Bynum, Texas
Current Conditions -  °F | °C
As of 1:55 PM on Sunday 25 Jan 2015 (Local Time) from KINJ Reporting Station
Clear Clear  
Wind Chill: 67°   Ceiling: Unl
Heat Index: 67°   Visibility: 10mi
Dew Point: 26°   Wind: 25mph
Humidity: 21%   Direction: 310°NW
Pressure: 30.05"   Gusts: 29mph
Location:  31.97°N, 97°W
Report Text: KINJ 251955Z AUTO 31022G25KT 10SM CLR 20/M04 A3005 RMK AO2 T01961036
Loading
Personal Weather Stations






























Interactive Weather Map New forecast layout! Learn more

10-Day Weather Forecast

Advertisements
Track Severe Weather on mobile